createdAt,value
2018-04-13T00:01:05.988Z,53.16
2018-04-13T00:03:33.808Z,53.66
2018-04-13T00:06:01.437Z,54.05
2018-04-13T00:08:29.053Z,54.13
2018-04-13T00:10:56.680Z,54.57
2018-04-13T00:13:24.292Z,53.94
2018-04-13T00:15:51.957Z,53.99
2018-04-13T00:18:19.568Z,54.38
2018-04-13T00:20:47.252Z,54.94
2018-04-13T00:23:14.868Z,55.28
2018-04-13T00:25:42.494Z,55.60
2018-04-13T00:28:10.112Z,55.47
2018-04-13T00:30:37.906Z,55.53
2018-04-13T00:33:05.520Z,55.14
2018-04-13T00:35:33.342Z,55.60
2018-04-13T00:38:01.160Z,55.83
2018-04-13T00:40:28.792Z,56.12
2018-04-13T00:42:56.408Z,56.04
2018-04-13T00:45:24.215Z,55.96
2018-04-13T00:47:51.805Z,56.11
2018-04-13T00:50:19.433Z,56.33
2018-04-13T00:52:58.892Z,56.11
2018-04-13T00:55:26.549Z,56.17
2018-04-13T00:57:54.321Z,55.98
2018-04-13T01:00:21.972Z,55.88
2018-04-13T01:02:49.600Z,55.18
2018-04-13T01:05:17.227Z,54.82
2018-04-13T01:07:44.933Z,54.55
2018-04-13T01:10:12.738Z,54.07
2018-04-13T01:12:40.380Z,54.22
2018-04-13T01:15:08.005Z,54.28
2018-04-13T01:17:35.708Z,53.95
2018-04-13T01:20:03.358Z,53.79
2018-04-13T01:22:30.972Z,53.92
2018-04-13T01:24:58.636Z,53.45
2018-04-13T01:27:26.464Z,53.74
2018-04-13T01:29:54.283Z,53.33
2018-04-13T01:32:21.910Z,53.82
2018-04-13T01:34:49.719Z,53.54
2018-04-13T01:37:17.332Z,53.40
2018-04-13T01:39:45.157Z,53.63
2018-04-13T01:42:12.776Z,54.07
2018-04-13T01:44:40.401Z,53.98
2018-04-13T01:47:08.032Z,54.04
2018-04-13T01:49:35.820Z,53.49
2018-04-13T01:52:03.525Z,53.08
2018-04-13T01:54:31.216Z,53.10
2018-04-13T01:56:58.839Z,53.38
2018-04-13T01:59:26.481Z,53.44
2018-04-13T02:01:54.202Z,53.75
2018-04-13T02:04:22.038Z,53.86
2018-04-13T02:06:49.666Z,53.63
2018-04-13T02:09:17.288Z,53.15
2018-04-13T02:11:44.910Z,52.58
2018-04-13T02:14:12.710Z,51.67
2018-04-13T02:16:40.429Z,51.08
2018-04-13T02:19:08.024Z,50.80
2018-04-13T02:21:35.577Z,50.96
2018-04-13T02:24:03.182Z,50.91
2018-04-13T02:26:30.734Z,50.59
2018-04-13T02:28:58.284Z,50.58
2018-04-13T02:31:25.853Z,50.38
2018-04-13T02:33:53.427Z,50.35
2018-04-13T02:36:21.016Z,50.41
2018-04-13T02:38:48.789Z,50.18
2018-04-13T02:41:16.609Z,50.79
2018-04-13T02:43:44.164Z,50.37
2018-04-13T02:46:11.777Z,49.78
2018-04-13T02:48:39.563Z,49.84
2018-04-13T02:51:07.137Z,49.01
2018-04-13T02:53:34.777Z,48.77
2018-04-13T02:56:02.347Z,48.54
2018-04-13T02:58:30.117Z,48.31
2018-04-13T03:00:57.685Z,48.86
2018-04-13T03:03:25.569Z,49.17
2018-04-13T03:05:53.144Z,49.98
2018-04-13T03:08:20.709Z,50.71
2018-04-13T03:10:48.524Z,51.15
2018-04-13T03:13:16.085Z,51.36
2018-04-13T03:15:43.774Z,51.98
2018-04-13T03:18:11.580Z,52.26
2018-04-13T03:20:39.398Z,52.20
2018-04-13T03:23:06.990Z,52.71
2018-04-13T03:25:34.734Z,52.40
2018-04-13T03:28:02.552Z,52.65
2018-04-13T03:30:30.109Z,52.77
2018-04-13T03:32:57.681Z,53.00
2018-04-13T03:35:25.237Z,53.20
2018-04-13T03:37:53.024Z,52.40
2018-04-13T03:40:20.588Z,53.10
2018-04-13T03:42:48.153Z,51.74
2018-04-13T03:45:16.079Z,51.77
2018-04-13T03:47:43.704Z,50.93
2018-04-13T03:50:11.282Z,51.74
2018-04-13T03:52:39.033Z,52.21
2018-04-13T03:55:06.852Z,52.30
2018-04-13T03:57:34.436Z,52.35
2018-04-13T04:00:02.158Z,52.84
2018-04-13T04:02:29.709Z,53.09
2018-04-13T04:04:57.524Z,53.73
2018-04-13T04:07:25.089Z,53.88
2018-04-13T04:09:52.872Z,53.87
2018-04-13T04:12:20.678Z,53.83
2018-04-13T04:14:48.461Z,53.10
2018-04-13T04:17:16.315Z,51.93
2018-04-13T04:19:55.976Z,51.78
2018-04-13T04:22:35.415Z,52.33
2018-04-13T04:25:14.896Z,52.31
2018-04-13T04:27:42.828Z,51.89
2018-04-13T04:30:10.387Z,51.82
2018-04-13T04:32:37.984Z,50.97
2018-04-13T04:35:05.740Z,50.43
2018-04-13T04:37:33.289Z,49.61
2018-04-13T04:40:00.860Z,49.29
2018-04-13T04:42:28.429Z,48.46
2018-04-13T04:44:56.239Z,47.81
2018-04-13T04:47:23.800Z,47.15
2018-04-13T04:49:51.578Z,47.06
2018-04-13T04:52:19.141Z,45.97
2018-04-13T04:54:46.693Z,44.39
2018-04-13T04:57:14.350Z,42.70
2018-04-13T04:59:41.953Z,40.98
2018-04-13T05:02:09.767Z,39.33
2018-04-13T05:04:37.301Z,39.15
2018-04-13T05:07:05.104Z,37.76
2018-04-13T05:09:32.668Z,33.85
2018-04-13T05:12:00.289Z,32.40
2018-04-13T05:14:27.836Z,31.08
2018-04-13T05:16:55.373Z,29.61
2018-04-13T05:19:23.193Z,28.66
2018-04-13T05:21:50.752Z,27.40
2018-04-13T05:24:18.529Z,26.13
2018-04-13T05:26:46.129Z,24.99
2018-04-13T05:29:13.975Z,24.93
2018-04-13T05:31:41.534Z,24.75
2018-04-13T05:34:09.096Z,24.71
2018-04-13T05:36:36.678Z,24.48
2018-04-13T05:39:04.539Z,24.84
2018-04-13T05:41:32.105Z,24.69
2018-04-13T05:43:59.877Z,24.00
2018-04-13T05:46:27.448Z,24.17
2018-04-13T05:48:55.004Z,23.53
2018-04-13T05:51:22.613Z,23.01
2018-04-13T05:53:50.172Z,22.84
2018-04-13T05:56:17.728Z,23.25
2018-04-13T05:58:45.296Z,24.24
2018-04-13T06:01:12.866Z,24.71
2018-04-13T06:03:40.617Z,24.40
2018-04-13T06:06:08.273Z,24.31
2018-04-13T06:08:35.838Z,23.82
2018-04-13T06:11:03.672Z,23.84
2018-04-13T06:13:32.595Z,23.76
2018-04-13T06:16:00.414Z,24.04
2018-04-13T06:18:28.131Z,23.71
2018-04-13T06:20:55.692Z,23.08
2018-04-13T06:23:23.239Z,23.04
2018-04-13T06:25:50.805Z,22.86
2018-04-13T06:28:18.606Z,23.79
2018-04-13T06:30:46.191Z,23.39
2018-04-13T06:33:13.756Z,22.87
2018-04-13T06:35:41.365Z,21.78
2018-04-13T06:38:08.928Z,22.61
2018-04-13T06:40:36.485Z,21.88
2018-04-13T06:43:04.313Z,21.76
2018-04-13T06:45:31.873Z,21.98
2018-04-13T06:47:59.444Z,22.65
2018-04-13T06:50:27.003Z,23.50
2018-04-13T06:52:54.672Z,22.99
2018-04-13T06:55:22.241Z,22.72
2018-04-13T06:57:50.021Z,22.37
2018-04-13T07:00:17.838Z,21.57
2018-04-13T07:02:45.424Z,21.52
2018-04-13T07:05:13.176Z,21.38
2018-04-13T07:07:40.732Z,21.31
2018-04-13T07:10:08.511Z,21.03
2018-04-13T07:12:36.076Z,20.20
2018-04-13T07:15:03.848Z,19.37
2018-04-13T07:17:31.418Z,20.12
2018-04-13T07:19:59.183Z,20.28
2018-04-13T07:22:26.748Z,19.91
2018-04-13T07:24:54.305Z,20.09
2018-04-13T07:27:21.917Z,19.76
2018-04-13T07:29:49.556Z,18.92
2018-04-13T07:32:17.163Z,19.05
2018-04-13T07:34:44.775Z,19.48
2018-04-13T07:37:12.508Z,19.58
2018-04-13T07:39:40.080Z,19.74
2018-04-13T07:42:07.636Z,19.76
2018-04-13T07:44:35.231Z,19.95
2018-04-13T07:47:02.792Z,20.29
2018-04-13T07:49:30.700Z,20.32
2018-04-13T07:51:58.617Z,20.53
2018-04-13T07:54:26.177Z,20.26
2018-04-13T07:56:53.954Z,19.78
2018-04-13T07:59:21.526Z,19.35
2018-04-13T08:01:49.150Z,19.71
2018-04-13T08:04:16.681Z,19.05
2018-04-13T08:06:44.389Z,19.34
2018-04-13T08:09:11.944Z,20.05
2018-04-13T08:11:39.766Z,19.60
2018-04-13T08:14:07.480Z,19.36
2018-04-13T08:16:35.299Z,19.44
2018-04-13T08:19:03.041Z,19.87
2018-04-13T08:21:30.837Z,19.18
2018-04-13T08:23:58.655Z,19.93
2018-04-13T08:26:26.373Z,19.52
2018-04-13T08:28:54.139Z,19.08
2018-04-13T08:31:21.701Z,18.97
2018-04-13T08:33:49.296Z,19.02
2018-04-13T08:36:17.018Z,18.19
2018-04-13T08:38:44.733Z,18.19
2018-04-13T08:41:12.322Z,18.66
2018-04-13T08:43:39.996Z,18.91
2018-04-13T08:46:07.626Z,19.19
2018-04-13T08:48:35.498Z,19.08
2018-04-13T08:51:03.036Z,18.64
2018-04-13T08:53:30.773Z,18.45
2018-04-13T08:55:58.469Z,18.67
2018-04-13T08:58:26.037Z,19.42
2018-04-13T09:00:53.730Z,19.79
2018-04-13T09:03:21.311Z,18.60
2018-04-13T09:05:48.900Z,18.74
2018-04-13T09:08:16.682Z,18.34
2018-04-13T09:10:44.503Z,18.20
2018-04-13T09:13:12.323Z,18.89
2018-04-13T09:15:39.869Z,19.02
2018-04-13T09:18:07.421Z,18.52
2018-04-13T09:20:34.996Z,17.87
2018-04-13T09:23:02.556Z,18.46
2018-04-13T09:25:30.199Z,18.78
2018-04-13T09:27:57.831Z,18.42
2018-04-13T09:30:25.464Z,18.78
2018-04-13T09:32:53.049Z,17.99
2018-04-13T09:35:20.605Z,17.46
2018-04-13T09:37:48.189Z,16.25
2018-04-13T09:40:15.821Z,15.79
2018-04-13T09:42:43.390Z,16.40
2018-04-13T09:45:10.969Z,16.80
2018-04-13T09:47:38.540Z,16.67
2018-04-13T09:50:06.291Z,16.16
2018-04-13T09:52:33.920Z,15.95
2018-04-13T09:55:01.492Z,16.89
2018-04-13T09:57:29.080Z,17.52
2018-04-13T09:59:56.647Z,17.87
2018-04-13T10:02:29.768Z,18.61
2018-04-13T10:04:57.377Z,18.96
2018-04-13T10:07:25.028Z,18.79
2018-04-13T10:09:52.653Z,18.50
2018-04-13T10:12:21.084Z,18.56
2018-04-13T10:14:48.657Z,18.58
2018-04-13T10:17:16.216Z,18.12
2018-04-13T10:19:43.822Z,17.86
2018-04-13T10:22:11.396Z,17.85
2018-04-13T10:24:39.168Z,17.32
2018-04-13T10:27:06.756Z,16.61
2018-04-13T10:29:34.313Z,16.47
2018-04-13T10:32:01.992Z,15.83
2018-04-13T10:34:29.734Z,16.52
2018-04-13T10:36:57.332Z,17.65
2018-04-13T10:39:24.893Z,17.63
2018-04-13T10:41:52.452Z,18.14
2018-04-13T10:44:20.043Z,20.39
2018-04-13T10:46:47.825Z,21.20
2018-04-13T10:49:15.430Z,21.39
2018-04-13T10:51:43.159Z,21.78
2018-04-13T10:54:10.734Z,21.89
2018-04-13T10:56:38.297Z,22.27
2018-04-13T10:59:05.916Z,21.63
2018-04-13T11:01:33.491Z,21.12
2018-04-13T11:04:01.062Z,21.43
2018-04-13T11:06:28.632Z,21.91
2018-04-13T11:08:56.383Z,21.93
2018-04-13T11:11:24.202Z,22.47
2018-04-13T11:13:51.774Z,22.05
2018-04-13T11:16:19.344Z,21.62
2018-04-13T11:18:47.156Z,22.16
2018-04-13T11:21:14.864Z,23.33
2018-04-13T11:23:42.433Z,23.28
2018-04-13T11:26:10.213Z,23.50
2018-04-13T11:28:37.766Z,23.61
2018-04-13T11:31:05.546Z,22.25
2018-04-13T11:33:33.115Z,22.43
2018-04-13T11:36:00.700Z,22.03
2018-04-13T11:38:28.312Z,22.34
2018-04-13T11:40:55.887Z,22.58
2018-04-13T11:43:23.445Z,22.00
2018-04-13T11:45:51.009Z,22.71
2018-04-13T11:48:18.770Z,21.85
2018-04-13T11:50:46.589Z,21.07
2018-04-13T11:53:14.327Z,20.73
2018-04-13T11:55:42.047Z,21.24
2018-04-13T11:58:09.617Z,20.98
2018-04-13T12:00:37.257Z,21.28
2018-04-13T12:03:04.821Z,21.93
2018-04-13T12:05:32.598Z,22.38
2018-04-13T12:08:00.212Z,22.64
2018-04-13T12:10:27.761Z,23.01
2018-04-13T12:12:55.333Z,23.80
2018-04-13T12:15:23.070Z,23.83
2018-04-13T12:17:50.672Z,22.60
2018-04-13T12:20:18.508Z,21.84
2018-04-13T12:22:46.325Z,22.30
2018-04-13T12:25:13.885Z,21.93
2018-04-13T12:27:41.627Z,22.71
2018-04-13T12:30:09.196Z,23.26
2018-04-13T12:32:36.756Z,23.26
2018-04-13T12:35:04.328Z,23.25
2018-04-13T12:37:31.887Z,23.00
2018-04-13T12:39:59.458Z,21.84
2018-04-13T12:42:27.036Z,23.10
2018-04-13T12:44:54.665Z,22.72
2018-04-13T12:47:22.364Z,23.38
2018-04-13T12:49:50.082Z,23.73
2018-04-13T12:52:17.824Z,23.55
2018-04-13T12:54:45.639Z,22.68
2018-04-13T12:57:13.086Z,23.09
2018-04-13T12:59:40.644Z,22.85
2018-04-13T13:02:08.275Z,22.15
2018-04-13T13:04:35.856Z,22.68
2018-04-13T13:07:03.418Z,23.15
2018-04-13T13:09:30.984Z,22.57
2018-04-13T13:11:58.550Z,22.67
2018-04-13T13:14:26.125Z,22.25
2018-04-13T13:16:53.808Z,22.40
2018-04-13T13:19:21.539Z,22.76
2018-04-13T13:21:49.358Z,22.03
2018-04-13T13:24:16.968Z,22.47
2018-04-13T13:26:44.600Z,22.05
2018-04-13T13:29:12.204Z,22.38
2018-04-13T13:31:39.795Z,23.36
2018-04-13T13:34:07.551Z,23.82
2018-04-13T13:36:35.124Z,23.76
2018-04-13T13:39:02.985Z,23.31
2018-04-13T13:41:30.551Z,23.63
2018-04-13T13:43:58.156Z,23.56
2018-04-13T13:46:25.796Z,23.78
2018-04-13T13:48:53.354Z,23.34
2018-04-13T13:51:21.075Z,23.01
2018-04-13T13:53:48.894Z,23.52
2018-04-13T13:56:16.451Z,24.09
2018-04-13T13:58:44.024Z,22.98
2018-04-13T14:01:11.585Z,22.85
2018-04-13T14:03:39.465Z,23.19
2018-04-13T14:06:07.288Z,23.79
2018-04-13T14:08:34.844Z,23.46
2018-04-13T14:11:02.620Z,23.03
2018-04-13T14:13:30.186Z,22.91
2018-04-13T14:15:57.930Z,23.24
2018-04-13T14:18:25.675Z,23.22
2018-04-13T14:20:53.294Z,23.69
2018-04-13T14:23:20.852Z,24.24
2018-04-13T14:25:48.443Z,24.23
2018-04-13T14:28:16.248Z,23.87
2018-04-13T14:30:43.960Z,24.22
2018-04-13T14:33:11.684Z,25.41
2018-04-13T14:35:39.503Z,26.29
2018-04-13T14:38:07.221Z,26.04
2018-04-13T14:40:35.043Z,26.58
2018-04-13T14:43:02.858Z,26.82
2018-04-13T14:45:30.446Z,26.71
2018-04-13T14:47:58.033Z,26.88
2018-04-13T14:50:25.585Z,26.86
2018-04-13T14:52:53.140Z,26.97
2018-04-13T14:55:20.757Z,26.52
2018-04-13T14:57:48.300Z,26.24
2018-04-13T15:00:16.084Z,26.64
2018-04-13T15:02:43.652Z,27.28
2018-04-13T15:05:11.423Z,27.64
2018-04-13T15:07:38.996Z,28.44
2018-04-13T15:10:06.548Z,29.48
2018-04-13T15:12:34.115Z,30.27
2018-04-13T15:15:01.896Z,30.46
2018-04-13T15:17:29.504Z,30.59
2018-04-13T15:19:57.074Z,30.87
2018-04-13T15:22:24.841Z,31.13
2018-04-13T15:24:52.459Z,31.72
2018-04-13T15:27:20.094Z,31.90
2018-04-13T15:29:47.901Z,32.53
2018-04-13T15:32:15.456Z,33.30
2018-04-13T15:34:43.127Z,33.85
2018-04-13T15:37:10.763Z,34.08
2018-04-13T15:39:38.407Z,34.33
2018-04-13T15:42:05.968Z,34.46
2018-04-13T15:44:33.708Z,34.43
2018-04-13T15:47:01.304Z,34.60
2018-04-13T15:49:29.047Z,35.08
2018-04-13T15:51:56.865Z,35.50
2018-04-13T15:54:24.425Z,35.94
2018-04-13T15:56:52.077Z,36.05
2018-04-13T15:59:19.695Z,36.22
2018-04-13T16:01:47.321Z,36.34
2018-04-13T16:04:15.052Z,36.66
2018-04-13T16:06:42.616Z,36.76
2018-04-13T16:09:10.303Z,37.10
2018-04-13T16:11:37.860Z,37.48
2018-04-13T16:14:05.516Z,37.77
2018-04-13T16:16:33.092Z,37.77
2018-04-13T16:19:00.646Z,37.88
2018-04-13T16:21:28.203Z,38.31
2018-04-13T16:23:55.832Z,38.53
2018-04-13T16:26:23.415Z,38.52
2018-04-13T16:28:50.991Z,38.72
2018-04-13T16:31:18.754Z,38.99
2018-04-13T16:33:46.316Z,38.80
2018-04-13T16:36:14.093Z,38.61
2018-04-13T16:38:41.661Z,39.12
2018-04-13T16:41:09.384Z,39.54
2018-04-13T16:43:37.042Z,37.35
2018-04-13T16:46:04.632Z,36.36
2018-04-13T16:48:32.222Z,36.15
2018-04-13T16:50:59.896Z,35.73
2018-04-13T16:53:27.471Z,35.65
2018-04-13T16:55:55.087Z,35.44
2018-04-13T16:58:22.634Z,35.82
2018-04-13T17:00:50.189Z,35.73
2018-04-13T17:03:17.800Z,35.79
2018-04-13T17:05:45.356Z,35.80
2018-04-13T17:08:13.120Z,35.92
2018-04-13T17:10:40.700Z,36.07
2018-04-13T17:13:08.265Z,36.31
2018-04-13T17:15:35.863Z,36.98
2018-04-13T17:18:03.424Z,36.95
2018-04-13T17:20:30.989Z,37.27
2018-04-13T17:22:58.826Z,37.49
2018-04-13T17:25:26.440Z,37.86
2018-04-13T17:27:53.980Z,38.17
2018-04-13T17:30:21.780Z,38.46
2018-04-13T17:32:49.380Z,38.83
2018-04-13T17:35:16.936Z,38.93
2018-04-13T17:37:44.735Z,39.28
2018-04-13T17:40:12.555Z,39.42
2018-04-13T17:42:40.148Z,39.62
2018-04-13T17:45:07.891Z,39.95
2018-04-13T17:47:35.709Z,40.12
2018-04-13T17:50:03.409Z,40.33
2018-04-13T17:52:31.145Z,40.63
2018-04-13T17:54:58.744Z,40.84
2018-04-13T17:57:26.304Z,41.23
2018-04-13T17:59:54.101Z,41.57
2018-04-13T18:02:21.674Z,41.80
2018-04-13T18:04:49.436Z,42.10
2018-04-13T18:07:17.155Z,42.24
2018-04-13T18:09:44.977Z,42.26
2018-04-13T18:12:12.576Z,42.60
2018-04-13T18:14:40.275Z,42.91
2018-04-13T18:17:07.990Z,42.99
2018-04-13T18:19:35.573Z,43.07
2018-04-13T18:22:03.255Z,43.19
2018-04-13T18:24:30.981Z,43.60
2018-04-13T18:26:58.596Z,43.62
2018-04-13T18:29:26.318Z,43.93
2018-04-13T18:31:53.872Z,44.17
2018-04-13T18:34:21.656Z,44.55
2018-04-13T18:36:49.474Z,44.92
2018-04-13T18:39:17.056Z,45.44
2018-04-13T18:41:44.623Z,45.80
2018-04-13T18:44:12.428Z,46.06
2018-04-13T18:46:39.993Z,46.18
2018-04-13T18:49:07.625Z,46.51
2018-04-13T18:51:35.211Z,46.77
2018-04-13T18:54:02.787Z,47.23
2018-04-13T18:56:30.512Z,47.60
2018-04-13T18:58:58.081Z,47.68
2018-04-13T19:01:25.647Z,47.97
2018-04-13T19:03:53.189Z,48.06
2018-04-13T19:06:20.764Z,48.31
2018-04-13T19:08:48.475Z,48.51
2018-04-13T19:11:16.101Z,48.60
2018-04-13T19:13:43.835Z,49.00
2018-04-13T19:16:11.445Z,49.22
2018-04-13T19:18:39.026Z,49.57
2018-04-13T19:21:06.600Z,49.45
2018-04-13T19:23:34.182Z,49.64
2018-04-13T19:26:01.983Z,49.62
2018-04-13T19:28:29.636Z,49.61
2018-04-13T19:30:57.229Z,49.66
2018-04-13T19:33:24.844Z,49.90
2018-04-13T19:35:52.397Z,50.09
2018-04-13T19:38:19.989Z,50.10
2018-04-13T19:40:47.742Z,50.18
2018-04-13T19:43:15.313Z,50.24
2018-04-13T19:45:42.892Z,50.33
2018-04-13T19:48:10.581Z,50.43
2018-04-13T19:50:38.152Z,50.58
2018-04-13T19:53:05.899Z,50.47
2018-04-13T19:55:33.546Z,50.78
2018-04-13T19:58:01.188Z,50.98
2018-04-13T20:00:28.760Z,51.17
2018-04-13T20:02:56.566Z,51.22
2018-04-13T20:05:24.198Z,51.42
2018-04-13T20:07:51.940Z,51.43
2018-04-13T20:10:19.514Z,51.32
2018-04-13T20:12:47.156Z,51.24
2018-04-13T20:15:24.528Z,51.29
2018-04-13T20:17:52.174Z,51.22
2018-04-13T20:20:19.965Z,51.29
2018-04-13T20:22:47.532Z,51.42
2018-04-13T20:25:15.108Z,51.48
2018-04-13T20:27:42.922Z,51.70
2018-04-13T20:30:10.528Z,52.06
2018-04-13T20:32:38.257Z,52.22
2018-04-13T20:35:06.075Z,52.23
2018-04-13T20:37:33.654Z,52.25
2018-04-13T20:40:01.268Z,52.48
2018-04-13T20:42:29.029Z,52.82
2018-04-13T20:44:56.584Z,52.96
2018-04-13T20:47:24.159Z,53.30
2018-04-13T20:49:51.707Z,54.10
2018-04-13T20:52:19.280Z,54.31
2018-04-13T20:54:46.994Z,54.45
2018-04-13T20:57:14.652Z,54.41
2018-04-13T20:59:42.212Z,54.28
2018-04-13T21:02:09.776Z,54.29
2018-04-13T21:04:37.591Z,54.31
2018-04-13T21:07:05.166Z,54.86
2018-04-13T21:09:32.740Z,54.62
2018-04-13T21:12:00.545Z,54.28
2018-04-13T21:14:28.176Z,54.21
2018-04-13T21:16:55.744Z,54.04
2018-04-13T21:19:23.499Z,54.48
2018-04-13T21:21:51.072Z,54.60
2018-04-13T21:24:18.830Z,54.48
2018-04-13T21:26:46.412Z,54.55
2018-04-13T21:29:13.987Z,54.86
2018-04-13T21:31:41.707Z,54.77
2018-04-13T21:34:09.269Z,54.97
2018-04-13T21:36:36.894Z,55.49
2018-04-13T21:39:04.744Z,56.54
2018-04-13T21:41:32.565Z,56.86
2018-04-13T21:44:00.117Z,57.62
2018-04-13T21:46:27.658Z,58.00
2018-04-13T21:48:55.264Z,58.32
2018-04-13T21:51:23.008Z,58.19
2018-04-13T21:53:50.590Z,58.11
2018-04-13T21:56:18.371Z,58.21
2018-04-13T21:58:45.984Z,58.05
2018-04-13T22:01:13.552Z,57.44
2018-04-13T22:03:41.325Z,57.11
2018-04-13T22:06:08.909Z,56.85
2018-04-13T22:08:36.476Z,56.73
2018-04-13T22:11:04.280Z,56.57
2018-04-13T22:13:31.894Z,56.51
2018-04-13T22:15:59.715Z,56.55
2018-04-13T22:18:27.535Z,56.14
2018-04-13T22:20:55.108Z,56.47
2018-04-13T22:23:22.871Z,56.27
2018-04-13T22:25:50.432Z,56.39
2018-04-13T22:28:18.023Z,56.82
2018-04-13T22:30:45.800Z,57.13
2018-04-13T22:33:13.363Z,57.56
2018-04-13T22:35:40.915Z,58.39
2018-04-13T22:38:08.651Z,58.62
2018-04-13T22:40:36.368Z,59.13
2018-04-13T22:43:03.984Z,59.51
2018-04-13T22:45:31.584Z,59.73
2018-04-13T22:47:59.148Z,60.58
2018-04-13T22:50:26.727Z,61.10
2018-04-13T22:52:54.452Z,61.66
2018-04-13T22:55:22.006Z,62.26
2018-04-13T22:57:49.570Z,62.20
2018-04-13T23:00:17.148Z,62.26
2018-04-13T23:02:44.723Z,61.91
2018-04-13T23:05:12.576Z,60.44
2018-04-13T23:07:40.395Z,60.41
2018-04-13T23:10:07.959Z,60.59
2018-04-13T23:12:35.711Z,60.92
2018-04-13T23:15:03.344Z,60.73
2018-04-13T23:17:31.169Z,60.98
2018-04-13T23:19:58.864Z,60.61
2018-04-13T23:22:37.502Z,60.94
2018-04-13T23:25:05.147Z,60.94
2018-04-13T23:27:32.880Z,60.86
2018-04-13T23:30:00.439Z,61.26
2018-04-13T23:32:28.215Z,61.94
2018-04-13T23:34:55.788Z,62.67
2018-04-13T23:37:23.527Z,63.40
2018-04-13T23:39:51.255Z,64.56
2018-04-13T23:42:18.827Z,65.35
2018-04-13T23:44:46.485Z,65.33
2018-04-13T23:47:14.224Z,62.70
2018-04-13T23:49:41.796Z,62.90
2018-04-13T23:52:09.372Z,63.56
2018-04-13T23:54:36.939Z,63.99
2018-04-13T23:57:04.569Z,65.00
2018-04-13T23:59:32.137Z,65.31
